sensor_id;sensor_type;location;lat;lon;timestamp;P1;durP1;ratioP1;P2;durP2;ratioP2
11608;SDS011;5860;52.018;8.536;2023-06-24T00:00:33;5.70;;;4.63;;
11608;SDS011;5860;52.018;8.536;2023-06-24T00:03:00;5.97;;;4.80;;
11608;SDS011;5860;52.018;8.536;2023-06-24T00:05:29;6.03;;;5.27;;
11608;SDS011;5860;52.018;8.536;2023-06-24T00:07:58;6.30;;;4.90;;
11608;SDS011;5860;52.018;8.536;2023-06-24T00:10:28;7.87;;;4.83;;
11608;SDS011;5860;52.018;8.536;2023-06-24T00:12:55;6.57;;;5.00;;
11608;SDS011;5860;52.018;8.536;2023-06-24T00:15:22;6.27;;;4.87;;
11608;SDS011;5860;52.018;8.536;2023-06-24T00:17:50;7.53;;;5.00;;
11608;SDS011;5860;52.018;8.536;2023-06-24T00:20:17;6.83;;;4.93;;
11608;SDS011;5860;52.018;8.536;2023-06-24T00:22:46;6.03;;;5.27;;
11608;SDS011;5860;52.018;8.536;2023-06-24T00:25:15;9.80;;;5.50;;
11608;SDS011;5860;52.018;8.536;2023-06-24T00:27:42;7.03;;;4.33;;
11608;SDS011;5860;52.018;8.536;2023-06-24T00:30:09;6.63;;;5.20;;
11608;SDS011;5860;52.018;8.536;2023-06-24T00:32:37;6.83;;;4.23;;
11608;SDS011;5860;52.018;8.536;2023-06-24T00:35:03;6.30;;;4.10;;
11608;SDS011;5860;52.018;8.536;2023-06-24T00:37:31;5.80;;;5.10;;
11608;SDS011;5860;52.018;8.536;2023-06-24T00:39:58;7.93;;;5.10;;
11608;SDS011;5860;52.018;8.536;2023-06-24T00:42:25;5.00;;;4.43;;
11608;SDS011;5860;52.018;8.536;2023-06-24T00:44:52;5.70;;;4.60;;
11608;SDS011;5860;52.018;8.536;2023-06-24T00:47:19;6.07;;;4.60;;
11608;SDS011;5860;52.018;8.536;2023-06-24T00:49:46;5.40;;;4.43;;
11608;SDS011;5860;52.018;8.536;2023-06-24T00:52:13;5.03;;;4.20;;
11608;SDS011;5860;52.018;8.536;2023-06-24T00:54:44;6.57;;;4.53;;
11608;SDS011;5860;52.018;8.536;2023-06-24T00:57:11;6.40;;;4.73;;
11608;SDS011;5860;52.018;8.536;2023-06-24T00:59:39;4.87;;;4.20;;
11608;SDS011;5860;52.018;8.536;2023-06-24T01:02:11;6.80;;;4.63;;
11608;SDS011;5860;52.018;8.536;2023-06-24T01:04:38;6.60;;;4.70;;
11608;SDS011;5860;52.018;8.536;2023-06-24T01:07:06;4.93;;;4.40;;
11608;SDS011;5860;52.018;8.536;2023-06-24T01:09:33;7.27;;;5.00;;
11608;SDS011;5860;52.018;8.536;2023-06-24T01:12:00;6.30;;;4.73;;
11608;SDS011;5860;52.018;8.536;2023-06-24T01:14:27;5.43;;;4.50;;
11608;SDS011;5860;52.018;8.536;2023-06-24T01:17:05;5.37;;;4.80;;
11608;SDS011;5860;52.018;8.536;2023-06-24T01:33:55;5.90;;;4.20;;
11608;SDS011;5860;52.018;8.536;2023-06-24T01:36:26;6.73;;;4.33;;
11608;SDS011;5860;52.018;8.536;2023-06-24T01:38:59;6.63;;;4.90;;
11608;SDS011;5860;52.018;8.536;2023-06-24T01:41:31;5.17;;;4.67;;
11608;SDS011;5860;52.018;8.536;2023-06-24T01:44:01;5.23;;;4.73;;
11608;SDS011;5860;52.018;8.536;2023-06-24T01:46:31;6.10;;;4.70;;
11608;SDS011;5860;52.018;8.536;2023-06-24T01:48:59;6.10;;;4.97;;
11608;SDS011;5860;52.018;8.536;2023-06-24T01:51:29;6.70;;;4.33;;
11608;SDS011;5860;52.018;8.536;2023-06-24T01:54:00;5.93;;;4.93;;
11608;SDS011;5860;52.018;8.536;2023-06-24T01:56:29;7.33;;;4.67;;
11608;SDS011;5860;52.018;8.536;2023-06-24T01:58:58;7.60;;;5.23;;
11608;SDS011;5860;52.018;8.536;2023-06-24T02:01:28;7.00;;;4.80;;
11608;SDS011;5860;52.018;8.536;2023-06-24T02:03:58;5.93;;;4.57;;
11608;SDS011;5860;52.018;8.536;2023-06-24T02:06:28;9.50;;;4.67;;
11608;SDS011;5860;52.018;8.536;2023-06-24T02:08:56;6.00;;;5.40;;
11608;SDS011;5860;52.018;8.536;2023-06-24T02:11:24;8.73;;;5.23;;
11608;SDS011;5860;52.018;8.536;2023-06-24T02:13:54;5.80;;;5.20;;
11608;SDS011;5860;52.018;8.536;2023-06-24T02:16:21;8.20;;;5.17;;
11608;SDS011;5860;52.018;8.536;2023-06-24T02:18:49;6.60;;;5.87;;
11608;SDS011;5860;52.018;8.536;2023-06-24T02:21:17;9.37;;;5.20;;
11608;SDS011;5860;52.018;8.536;2023-06-24T02:23:46;6.53;;;5.13;;
11608;SDS011;5860;52.018;8.536;2023-06-24T02:26:14;7.03;;;5.40;;
11608;SDS011;5860;52.018;8.536;2023-06-24T02:28:43;9.13;;;5.73;;
11608;SDS011;5860;52.018;8.536;2023-06-24T02:31:12;6.73;;;5.30;;
11608;SDS011;5860;52.018;8.536;2023-06-24T02:33:40;7.57;;;5.20;;
11608;SDS011;5860;52.018;8.536;2023-06-24T02:36:08;6.30;;;5.40;;
11608;SDS011;5860;52.018;8.536;2023-06-24T02:38:36;6.83;;;5.27;;
11608;SDS011;5860;52.018;8.536;2023-06-24T02:41:03;6.47;;;5.30;;
11608;SDS011;5860;52.018;8.536;2023-06-24T02:43:31;8.53;;;4.97;;
11608;SDS011;5860;52.018;8.536;2023-06-24T02:45:59;6.03;;;5.13;;
11608;SDS011;5860;52.018;8.536;2023-06-24T02:48:29;6.43;;;5.70;;
11608;SDS011;5860;52.018;8.536;2023-06-24T02:50:58;7.90;;;5.60;;
11608;SDS011;5860;52.018;8.536;2023-06-24T02:53:27;7.50;;;5.77;;
11608;SDS011;5860;52.018;8.536;2023-06-24T02:55:55;7.53;;;5.40;;
11608;SDS011;5860;52.018;8.536;2023-06-24T02:58:23;6.87;;;5.67;;
11608;SDS011;5860;52.018;8.536;2023-06-24T03:01:01;7.17;;;5.87;;
11608;SDS011;5860;52.018;8.536;2023-06-24T03:03:33;9.67;;;5.90;;
11608;SDS011;5860;52.018;8.536;2023-06-24T03:06:01;7.37;;;5.57;;
11608;SDS011;5860;52.018;8.536;2023-06-24T03:08:29;8.30;;;5.57;;
11608;SDS011;5860;52.018;8.536;2023-06-24T03:10:56;6.97;;;5.60;;
11608;SDS011;5860;52.018;8.536;2023-06-24T03:13:23;10.63;;;6.37;;
11608;SDS011;5860;52.018;8.536;2023-06-24T03:15:51;7.37;;;5.63;;
11608;SDS011;5860;52.018;8.536;2023-06-24T03:18:19;7.33;;;5.63;;
11608;SDS011;5860;52.018;8.536;2023-06-24T03:20:46;10.13;;;5.80;;
11608;SDS011;5860;52.018;8.536;2023-06-24T03:23:13;6.40;;;5.80;;
11608;SDS011;5860;52.018;8.536;2023-06-24T03:25:40;11.07;;;5.97;;
11608;SDS011;5860;52.018;8.536;2023-06-24T03:28:07;7.30;;;5.87;;
11608;SDS011;5860;52.018;8.536;2023-06-24T03:30:34;6.70;;;5.43;;
11608;SDS011;5860;52.018;8.536;2023-06-24T03:33:02;13.40;;;6.47;;
11608;SDS011;5860;52.018;8.536;2023-06-24T03:35:29;11.10;;;5.87;;
11608;SDS011;5860;52.018;8.536;2023-06-24T03:37:59;9.57;;;5.70;;
11608;SDS011;5860;52.018;8.536;2023-06-24T03:40:26;6.97;;;5.83;;
11608;SDS011;5860;52.018;8.536;2023-06-24T03:42:53;9.30;;;5.53;;
11608;SDS011;5860;52.018;8.536;2023-06-24T03:45:20;7.70;;;5.77;;
11608;SDS011;5860;52.018;8.536;2023-06-24T03:47:47;8.27;;;5.97;;
11608;SDS011;5860;52.018;8.536;2023-06-24T03:50:14;10.73;;;6.30;;
11608;SDS011;5860;52.018;8.536;2023-06-24T03:52:41;6.83;;;6.07;;
11608;SDS011;5860;52.018;8.536;2023-06-24T03:55:10;9.27;;;5.90;;
11608;SDS011;5860;52.018;8.536;2023-06-24T03:57:38;6.70;;;6.00;;
11608;SDS011;5860;52.018;8.536;2023-06-24T04:00:05;6.50;;;5.80;;
11608;SDS011;5860;52.018;8.536;2023-06-24T04:02:43;6.37;;;5.30;;
11608;SDS011;5860;52.018;8.536;2023-06-24T04:05:11;6.33;;;5.53;;
11608;SDS011;5860;52.018;8.536;2023-06-24T04:07:38;6.40;;;4.77;;
11608;SDS011;5860;52.018;8.536;2023-06-24T04:10:06;9.77;;;4.80;;
11608;SDS011;5860;52.018;8.536;2023-06-24T04:12:35;7.20;;;5.00;;
11608;SDS011;5860;52.018;8.536;2023-06-24T04:15:02;6.47;;;4.43;;
11608;SDS011;5860;52.018;8.536;2023-06-24T04:17:30;5.70;;;4.53;;
11608;SDS011;5860;52.018;8.536;2023-06-24T04:19:57;5.43;;;3.92;;
11608;SDS011;5860;52.018;8.536;2023-06-24T04:22:25;5.57;;;4.22;;
11608;SDS011;5860;52.018;8.536;2023-06-24T04:24:53;7.00;;;4.10;;
11608;SDS011;5860;52.018;8.536;2023-06-24T04:27:21;4.65;;;4.03;;
11608;SDS011;5860;52.018;8.536;2023-06-24T04:29:48;5.45;;;4.22;;
11608;SDS011;5860;52.018;8.536;2023-06-24T04:32:15;6.35;;;4.18;;
11608;SDS011;5860;52.018;8.536;2023-06-24T04:34:42;6.25;;;4.15;;
11608;SDS011;5860;52.018;8.536;2023-06-24T04:37:09;5.90;;;4.45;;
11608;SDS011;5860;52.018;8.536;2023-06-24T04:39:36;5.75;;;4.30;;
11608;SDS011;5860;52.018;8.536;2023-06-24T04:42:03;7.75;;;4.10;;
11608;SDS011;5860;52.018;8.536;2023-06-24T04:44:30;5.18;;;4.15;;
11608;SDS011;5860;52.018;8.536;2023-06-24T04:46:57;6.63;;;4.35;;
11608;SDS011;5860;52.018;8.536;2023-06-24T04:49:24;5.50;;;3.97;;
11608;SDS011;5860;52.018;8.536;2023-06-24T04:51:51;6.95;;;4.60;;
11608;SDS011;5860;52.018;8.536;2023-06-24T04:54:18;9.80;;;4.63;;
11608;SDS011;5860;52.018;8.536;2023-06-24T04:56:45;4.70;;;4.10;;
11608;SDS011;5860;52.018;8.536;2023-06-24T04:59:15;5.10;;;4.60;;
11608;SDS011;5860;52.018;8.536;2023-06-24T05:01:42;6.15;;;4.00;;
11608;SDS011;5860;52.018;8.536;2023-06-24T05:04:08;6.82;;;4.45;;
11608;SDS011;5860;52.018;8.536;2023-06-24T05:06:35;5.47;;;4.13;;
11608;SDS011;5860;52.018;8.536;2023-06-24T05:09:02;6.30;;;4.07;;
11608;SDS011;5860;52.018;8.536;2023-06-24T05:11:29;5.43;;;4.40;;
11608;SDS011;5860;52.018;8.536;2023-06-24T05:13:56;6.38;;;4.10;;
11608;SDS011;5860;52.018;8.536;2023-06-24T05:16:24;6.57;;;4.35;;
11608;SDS011;5860;52.018;8.536;2023-06-24T05:18:51;4.88;;;4.47;;
11608;SDS011;5860;52.018;8.536;2023-06-24T05:21:18;4.35;;;3.95;;
11608;SDS011;5860;52.018;8.536;2023-06-24T05:23:45;4.85;;;4.15;;
11608;SDS011;5860;52.018;8.536;2023-06-24T05:26:11;4.43;;;4.03;;
11608;SDS011;5860;52.018;8.536;2023-06-24T05:28:38;13.20;;;4.30;;
11608;SDS011;5860;52.018;8.536;2023-06-24T05:31:05;6.35;;;4.38;;
11608;SDS011;5860;52.018;8.536;2023-06-24T05:33:32;5.05;;;3.90;;
11608;SDS011;5860;52.018;8.536;2023-06-24T05:35:59;4.22;;;3.83;;
11608;SDS011;5860;52.018;8.536;2023-06-24T05:38:26;6.13;;;3.95;;
11608;SDS011;5860;52.018;8.536;2023-06-24T05:40:52;7.30;;;4.05;;
11608;SDS011;5860;52.018;8.536;2023-06-24T05:43:19;5.93;;;4.30;;
11608;SDS011;5860;52.018;8.536;2023-06-24T05:45:46;4.65;;;4.07;;
11608;SDS011;5860;52.018;8.536;2023-06-24T05:48:13;6.32;;;3.92;;
11608;SDS011;5860;52.018;8.536;2023-06-24T05:50:40;6.13;;;4.38;;
11608;SDS011;5860;52.018;8.536;2023-06-24T05:53:07;4.97;;;3.90;;
11608;SDS011;5860;52.018;8.536;2023-06-24T05:55:34;5.00;;;4.00;;
11608;SDS011;5860;52.018;8.536;2023-06-24T05:58:01;6.28;;;4.00;;
11608;SDS011;5860;52.018;8.536;2023-06-24T06:00:28;6.88;;;4.47;;
11608;SDS011;5860;52.018;8.536;2023-06-24T06:02:55;5.05;;;4.45;;
11608;SDS011;5860;52.018;8.536;2023-06-24T06:05:22;5.80;;;4.55;;
11608;SDS011;5860;52.018;8.536;2023-06-24T06:07:49;5.15;;;4.00;;
11608;SDS011;5860;52.018;8.536;2023-06-24T06:10:16;5.72;;;4.20;;
11608;SDS011;5860;52.018;8.536;2023-06-24T06:12:43;6.32;;;4.47;;
11608;SDS011;5860;52.018;8.536;2023-06-24T06:15:10;8.05;;;5.03;;
11608;SDS011;5860;52.018;8.536;2023-06-24T06:17:38;5.22;;;4.10;;
11608;SDS011;5860;52.018;8.536;2023-06-24T06:20:05;6.03;;;4.43;;
11608;SDS011;5860;52.018;8.536;2023-06-24T06:22:32;6.43;;;4.10;;
11608;SDS011;5860;52.018;8.536;2023-06-24T06:25:04;9.68;;;4.05;;
11608;SDS011;5860;52.018;8.536;2023-06-24T06:27:32;7.20;;;4.15;;
11608;SDS011;5860;52.018;8.536;2023-06-24T06:29:59;6.63;;;3.80;;
11608;SDS011;5860;52.018;8.536;2023-06-24T06:32:26;6.18;;;4.10;;
11608;SDS011;5860;52.018;8.536;2023-06-24T06:34:56;6.07;;;4.07;;
11608;SDS011;5860;52.018;8.536;2023-06-24T06:37:23;6.35;;;3.95;;
11608;SDS011;5860;52.018;8.536;2023-06-24T06:39:50;5.72;;;4.00;;
11608;SDS011;5860;52.018;8.536;2023-06-24T06:42:17;5.80;;;4.18;;
11608;SDS011;5860;52.018;8.536;2023-06-24T06:44:44;5.18;;;4.60;;
11608;SDS011;5860;52.018;8.536;2023-06-24T06:47:11;5.68;;;4.40;;
11608;SDS011;5860;52.018;8.536;2023-06-24T06:49:38;5.30;;;4.40;;
11608;SDS011;5860;52.018;8.536;2023-06-24T06:52:05;5.63;;;4.65;;
11608;SDS011;5860;52.018;8.536;2023-06-24T06:54:32;4.53;;;4.13;;
11608;SDS011;5860;52.018;8.536;2023-06-24T06:57:02;9.82;;;4.82;;
11608;SDS011;5860;52.018;8.536;2023-06-24T06:59:33;5.40;;;4.90;;
11608;SDS011;5860;52.018;8.536;2023-06-24T07:02:00;7.88;;;4.88;;
11608;SDS011;5860;52.018;8.536;2023-06-24T07:04:26;6.03;;;5.30;;
11608;SDS011;5860;52.018;8.536;2023-06-24T07:06:53;5.70;;;5.20;;
11608;SDS011;5860;52.018;8.536;2023-06-24T07:09:20;8.27;;;6.07;;
11608;SDS011;5860;52.018;8.536;2023-06-24T07:11:47;7.22;;;6.20;;
11608;SDS011;5860;52.018;8.536;2023-06-24T07:14:14;6.97;;;6.30;;
11608;SDS011;5860;52.018;8.536;2023-06-24T07:16:41;6.47;;;5.88;;
11608;SDS011;5860;52.018;8.536;2023-06-24T07:19:08;6.88;;;6.28;;
11608;SDS011;5860;52.018;8.536;2023-06-24T07:21:34;6.18;;;5.57;;
11608;SDS011;5860;52.018;8.536;2023-06-24T07:24:01;6.82;;;5.88;;
11608;SDS011;5860;52.018;8.536;2023-06-24T07:26:28;9.05;;;5.97;;
11608;SDS011;5860;52.018;8.536;2023-06-24T07:28:57;7.03;;;6.35;;
11608;SDS011;5860;52.018;8.536;2023-06-24T07:31:34;7.18;;;6.43;;
11608;SDS011;5860;52.018;8.536;2023-06-24T07:34:03;8.18;;;6.20;;
11608;SDS011;5860;52.018;8.536;2023-06-24T07:36:30;7.32;;;6.57;;
11608;SDS011;5860;52.018;8.536;2023-06-24T07:38:57;9.15;;;5.90;;
11608;SDS011;5860;52.018;8.536;2023-06-24T07:41:24;6.05;;;5.47;;
11608;SDS011;5860;52.018;8.536;2023-06-24T07:43:51;8.75;;;6.10;;
11608;SDS011;5860;52.018;8.536;2023-06-24T07:46:18;13.40;;;7.10;;
11608;SDS011;5860;52.018;8.536;2023-06-24T07:48:45;9.07;;;5.82;;
11608;SDS011;5860;52.018;8.536;2023-06-24T07:51:12;8.02;;;6.40;;
11608;SDS011;5860;52.018;8.536;2023-06-24T07:53:39;7.72;;;6.75;;
11608;SDS011;5860;52.018;8.536;2023-06-24T07:56:06;8.32;;;6.65;;
11608;SDS011;5860;52.018;8.536;2023-06-24T07:58:33;7.85;;;6.47;;
11608;SDS011;5860;52.018;8.536;2023-06-24T08:01:01;6.90;;;5.75;;
11608;SDS011;5860;52.018;8.536;2023-06-24T08:03:28;6.88;;;6.13;;
11608;SDS011;5860;52.018;8.536;2023-06-24T08:05:55;8.18;;;7.35;;
11608;SDS011;5860;52.018;8.536;2023-06-24T08:08:22;7.47;;;6.82;;
11608;SDS011;5860;52.018;8.536;2023-06-24T08:10:50;7.47;;;6.80;;
11608;SDS011;5860;52.018;8.536;2023-06-24T08:13:17;13.00;;;6.78;;
11608;SDS011;5860;52.018;8.536;2023-06-24T08:15:44;6.38;;;5.78;;
11608;SDS011;5860;52.018;8.536;2023-06-24T08:18:11;6.20;;;5.60;;
11608;SDS011;5860;52.018;8.536;2023-06-24T08:20:38;5.85;;;5.35;;
11608;SDS011;5860;52.018;8.536;2023-06-24T08:23:04;6.88;;;6.18;;
11608;SDS011;5860;52.018;8.536;2023-06-24T08:25:31;9.95;;;7.05;;
11608;SDS011;5860;52.018;8.536;2023-06-24T08:27:59;6.68;;;6.07;;
11608;SDS011;5860;52.018;8.536;2023-06-24T08:30:25;6.82;;;6.13;;
11608;SDS011;5860;52.018;8.536;2023-06-24T08:32:53;6.00;;;5.00;;
11608;SDS011;5860;52.018;8.536;2023-06-24T08:35:20;5.35;;;4.85;;
11608;SDS011;5860;52.018;8.536;2023-06-24T08:37:47;8.07;;;5.90;;
11608;SDS011;5860;52.018;8.536;2023-06-24T08:40:13;6.75;;;5.57;;
11608;SDS011;5860;52.018;8.536;2023-06-24T08:42:40;5.38;;;4.88;;
11608;SDS011;5860;52.018;8.536;2023-06-24T08:45:07;6.72;;;6.03;;
11608;SDS011;5860;52.018;8.536;2023-06-24T08:47:34;8.15;;;5.63;;
11608;SDS011;5860;52.018;8.536;2023-06-24T08:50:03;5.70;;;4.75;;
11608;SDS011;5860;52.018;8.536;2023-06-24T08:52:35;5.60;;;5.03;;
11608;SDS011;5860;52.018;8.536;2023-06-24T08:55:04;6.30;;;5.60;;
11608;SDS011;5860;52.018;8.536;2023-06-24T08:57:33;5.80;;;5.22;;
11608;SDS011;5860;52.018;8.536;2023-06-24T09:00:00;6.03;;;5.53;;
11608;SDS011;5860;52.018;8.536;2023-06-24T09:02:27;7.22;;;5.43;;
11608;SDS011;5860;52.018;8.536;2023-06-24T09:04:54;6.82;;;5.35;;
11608;SDS011;5860;52.018;8.536;2023-06-24T09:07:27;6.63;;;4.80;;
11608;SDS011;5860;52.018;8.536;2023-06-24T09:09:55;5.15;;;4.47;;
11608;SDS011;5860;52.018;8.536;2023-06-24T09:12:23;5.00;;;3.85;;
11608;SDS011;5860;52.018;8.536;2023-06-24T09:14:51;5.75;;;4.00;;
11608;SDS011;5860;52.018;8.536;2023-06-24T09:17:18;4.55;;;4.07;;
11608;SDS011;5860;52.018;8.536;2023-06-24T09:19:49;5.60;;;4.63;;
11608;SDS011;5860;52.018;8.536;2023-06-24T09:22:17;5.80;;;5.15;;
11608;SDS011;5860;52.018;8.536;2023-06-24T09:24:45;7.28;;;4.90;;
11608;SDS011;5860;52.018;8.536;2023-06-24T09:27:14;5.07;;;4.57;;
11608;SDS011;5860;52.018;8.536;2023-06-24T09:29:43;5.93;;;4.78;;
11608;SDS011;5860;52.018;8.536;2023-06-24T09:32:10;6.93;;;5.13;;
11608;SDS011;5860;52.018;8.536;2023-06-24T09:34:38;5.63;;;4.95;;
11608;SDS011;5860;52.018;8.536;2023-06-24T09:37:05;7.50;;;5.13;;
11608;SDS011;5860;52.018;8.536;2023-06-24T09:39:39;4.70;;;4.25;;
11608;SDS011;5860;52.018;8.536;2023-06-24T09:42:06;6.28;;;5.03;;
11608;SDS011;5860;52.018;8.536;2023-06-24T09:44:34;6.68;;;5.70;;
11608;SDS011;5860;52.018;8.536;2023-06-24T09:47:01;6.90;;;5.13;;
11608;SDS011;5860;52.018;8.536;2023-06-24T09:49:28;8.85;;;6.30;;
11608;SDS011;5860;52.018;8.536;2023-06-24T09:51:57;5.72;;;5.15;;
11608;SDS011;5860;52.018;8.536;2023-06-24T09:54:25;6.57;;;5.38;;
11608;SDS011;5860;52.018;8.536;2023-06-24T09:57:00;7.32;;;5.28;;
11608;SDS011;5860;52.018;8.536;2023-06-24T09:59:28;8.25;;;5.15;;
11608;SDS011;5860;52.018;8.536;2023-06-24T10:01:57;10.65;;;5.20;;
11608;SDS011;5860;52.018;8.536;2023-06-24T10:04:25;7.15;;;6.45;;
11608;SDS011;5860;52.018;8.536;2023-06-24T10:06:54;6.22;;;5.60;;
11608;SDS011;5860;52.018;8.536;2023-06-24T10:09:21;8.65;;;6.25;;
11608;SDS011;5860;52.018;8.536;2023-06-24T10:11:48;6.55;;;5.57;;
11608;SDS011;5860;52.018;8.536;2023-06-24T10:14:15;10.35;;;6.30;;
11608;SDS011;5860;52.018;8.536;2023-06-24T10:16:44;6.80;;;5.53;;
11608;SDS011;5860;52.018;8.536;2023-06-24T10:19:10;6.32;;;5.20;;
11608;SDS011;5860;52.018;8.536;2023-06-24T10:21:47;7.15;;;5.80;;
11608;SDS011;5860;52.018;8.536;2023-06-24T10:24:30;6.57;;;5.72;;
11608;SDS011;5860;52.018;8.536;2023-06-24T10:27:02;7.10;;;5.70;;
11608;SDS011;5860;52.018;8.536;2023-06-24T10:29:38;6.40;;;5.65;;
11608;SDS011;5860;52.018;8.536;2023-06-24T10:32:06;7.30;;;6.20;;
11608;SDS011;5860;52.018;8.536;2023-06-24T10:37:08;5.55;;;4.93;;
11608;SDS011;5860;52.018;8.536;2023-06-24T10:44:50;9.98;;;6.07;;
11608;SDS011;5860;52.018;8.536;2023-06-24T10:47:18;6.72;;;6.03;;
11608;SDS011;5860;52.018;8.536;2023-06-24T10:49:45;6.82;;;5.97;;
11608;SDS011;5860;52.018;8.536;2023-06-24T10:52:12;7.70;;;5.63;;
11608;SDS011;5860;52.018;8.536;2023-06-24T10:54:40;6.20;;;5.57;;
11608;SDS011;5860;52.018;8.536;2023-06-24T10:57:07;7.38;;;6.18;;
11608;SDS011;5860;52.018;8.536;2023-06-24T10:59:40;7.93;;;5.75;;
11608;SDS011;5860;52.018;8.536;2023-06-24T11:02:14;7.35;;;5.20;;
11608;SDS011;5860;52.018;8.536;2023-06-24T11:04:51;6.28;;;5.68;;
11608;SDS011;5860;52.018;8.536;2023-06-24T11:07:24;7.18;;;6.18;;
11608;SDS011;5860;52.018;8.536;2023-06-24T11:09:53;7.07;;;5.82;;
11608;SDS011;5860;52.018;8.536;2023-06-24T11:12:24;6.13;;;5.53;;
11608;SDS011;5860;52.018;8.536;2023-06-24T11:14:56;8.55;;;6.20;;
11608;SDS011;5860;52.018;8.536;2023-06-24T11:17:24;11.57;;;6.25;;
11608;SDS011;5860;52.018;8.536;2023-06-24T11:19:52;6.10;;;5.22;;
11608;SDS011;5860;52.018;8.536;2023-06-24T11:22:21;6.43;;;5.72;;
11608;SDS011;5860;52.018;8.536;2023-06-24T11:24:48;7.10;;;6.28;;
11608;SDS011;5860;52.018;8.536;2023-06-24T11:27:15;6.70;;;5.85;;
11608;SDS011;5860;52.018;8.536;2023-06-24T11:29:44;6.85;;;5.50;;
11608;SDS011;5860;52.018;8.536;2023-06-24T11:32:11;6.30;;;5.28;;
11608;SDS011;5860;52.018;8.536;2023-06-24T11:34:38;7.55;;;5.03;;
11608;SDS011;5860;52.018;8.536;2023-06-24T11:37:12;6.05;;;5.45;;
11608;SDS011;5860;52.018;8.536;2023-06-24T11:39:40;5.72;;;5.18;;
11608;SDS011;5860;52.018;8.536;2023-06-24T11:42:08;7.30;;;5.93;;
11608;SDS011;5860;52.018;8.536;2023-06-24T11:44:35;6.72;;;5.38;;
11608;SDS011;5860;52.018;8.536;2023-06-24T11:47:10;8.88;;;5.90;;
11608;SDS011;5860;52.018;8.536;2023-06-24T11:49:48;6.70;;;6.05;;
11608;SDS011;5860;52.018;8.536;2023-06-24T11:52:55;6.50;;;5.82;;
11608;SDS011;5860;52.018;8.536;2023-06-24T11:55:22;7.60;;;5.82;;
11608;SDS011;5860;52.018;8.536;2023-06-24T12:00:21;5.32;;;4.45;;
11608;SDS011;5860;52.018;8.536;2023-06-24T12:02:52;5.47;;;4.97;;
11608;SDS011;5860;52.018;8.536;2023-06-24T12:05:20;6.20;;;5.60;;
11608;SDS011;5860;52.018;8.536;2023-06-24T12:07:55;6.30;;;5.22;;
11608;SDS011;5860;52.018;8.536;2023-06-24T12:10:33;6.40;;;4.90;;
11608;SDS011;5860;52.018;8.536;2023-06-24T12:13:02;5.30;;;4.80;;
11608;SDS011;5860;52.018;8.536;2023-06-24T12:15:30;5.88;;;4.75;;
11608;SDS011;5860;52.018;8.536;2023-06-24T12:17:59;6.55;;;5.00;;
11608;SDS011;5860;52.018;8.536;2023-06-24T12:20:28;6.82;;;4.88;;
11608;SDS011;5860;52.018;8.536;2023-06-24T12:23:00;6.18;;;5.07;;
11608;SDS011;5860;52.018;8.536;2023-06-24T12:25:27;6.00;;;4.50;;
11608;SDS011;5860;52.018;8.536;2023-06-24T12:27:54;5.90;;;4.50;;
11608;SDS011;5860;52.018;8.536;2023-06-24T12:30:21;9.60;;;6.45;;
11608;SDS011;5860;52.018;8.536;2023-06-24T12:32:49;5.80;;;5.28;;
11608;SDS011;5860;52.018;8.536;2023-06-24T12:35:17;7.25;;;4.78;;
11608;SDS011;5860;52.018;8.536;2023-06-24T12:37:44;8.10;;;4.90;;
11608;SDS011;5860;52.018;8.536;2023-06-24T12:40:12;6.03;;;5.07;;
11608;SDS011;5860;52.018;8.536;2023-06-24T12:42:39;5.78;;;5.22;;
11608;SDS011;5860;52.018;8.536;2023-06-24T12:45:06;8.68;;;5.50;;
11608;SDS011;5860;52.018;8.536;2023-06-24T12:47:34;5.82;;;5.30;;
11608;SDS011;5860;52.018;8.536;2023-06-24T12:50:01;6.93;;;5.07;;
11608;SDS011;5860;52.018;8.536;2023-06-24T12:52:34;5.93;;;4.95;;
11608;SDS011;5860;52.018;8.536;2023-06-24T12:55:01;10.25;;;5.57;;
11608;SDS011;5860;52.018;8.536;2023-06-24T12:57:30;7.18;;;5.00;;
11608;SDS011;5860;52.018;8.536;2023-06-24T12:59:57;5.65;;;5.13;;
11608;SDS011;5860;52.018;8.536;2023-06-24T13:02:24;6.57;;;5.22;;
11608;SDS011;5860;52.018;8.536;2023-06-24T13:04:51;6.88;;;5.40;;
11608;SDS011;5860;52.018;8.536;2023-06-24T13:07:18;5.70;;;4.93;;
11608;SDS011;5860;52.018;8.536;2023-06-24T13:09:45;6.93;;;5.32;;
11608;SDS011;5860;52.018;8.536;2023-06-24T13:12:12;5.65;;;5.15;;
11608;SDS011;5860;52.018;8.536;2023-06-24T13:14:39;5.97;;;5.03;;
11608;SDS011;5860;52.018;8.536;2023-06-24T13:17:06;6.38;;;5.45;;
11608;SDS011;5860;52.018;8.536;2023-06-24T13:19:33;7.47;;;5.28;;
11608;SDS011;5860;52.018;8.536;2023-06-24T13:22:00;7.97;;;5.32;;
11608;SDS011;5860;52.018;8.536;2023-06-24T13:24:27;5.55;;;5.00;;
11608;SDS011;5860;52.018;8.536;2023-06-24T13:26:54;6.80;;;4.95;;
11608;SDS011;5860;52.018;8.536;2023-06-24T13:29:21;5.70;;;5.03;;
11608;SDS011;5860;52.018;8.536;2023-06-24T13:31:48;5.82;;;5.32;;
11608;SDS011;5860;52.018;8.536;2023-06-24T13:34:17;6.15;;;4.65;;
11608;SDS011;5860;52.018;8.536;2023-06-24T13:36:45;6.05;;;5.18;;
11608;SDS011;5860;52.018;8.536;2023-06-24T13:39:14;8.93;;;5.40;;
11608;SDS011;5860;52.018;8.536;2023-06-24T13:41:46;5.97;;;5.38;;
11608;SDS011;5860;52.018;8.536;2023-06-24T13:44:13;5.10;;;4.60;;
11608;SDS011;5860;52.018;8.536;2023-06-24T13:46:40;5.70;;;5.13;;
11608;SDS011;5860;52.018;8.536;2023-06-24T13:49:07;6.15;;;5.35;;
11608;SDS011;5860;52.018;8.536;2023-06-24T13:51:34;6.13;;;5.63;;
11608;SDS011;5860;52.018;8.536;2023-06-24T13:54:01;6.78;;;5.50;;
11608;SDS011;5860;52.018;8.536;2023-06-24T13:56:28;6.65;;;5.38;;
11608;SDS011;5860;52.018;8.536;2023-06-24T13:58:55;5.50;;;5.00;;
11608;SDS011;5860;52.018;8.536;2023-06-24T14:01:22;5.65;;;5.10;;
11608;SDS011;5860;52.018;8.536;2023-06-24T14:03:50;9.45;;;5.55;;
11608;SDS011;5860;52.018;8.536;2023-06-24T14:06:20;5.90;;;5.15;;
11608;SDS011;5860;52.018;8.536;2023-06-24T14:08:48;7.82;;;5.60;;
11608;SDS011;5860;52.018;8.536;2023-06-24T14:11:16;7.22;;;5.68;;
11608;SDS011;5860;52.018;8.536;2023-06-24T14:13:43;6.45;;;5.85;;
11608;SDS011;5860;52.018;8.536;2023-06-24T14:16:11;6.85;;;6.15;;
11608;SDS011;5860;52.018;8.536;2023-06-24T14:18:38;6.88;;;6.28;;
11608;SDS011;5860;52.018;8.536;2023-06-24T14:21:05;7.25;;;5.78;;
11608;SDS011;5860;52.018;8.536;2023-06-24T14:23:33;7.05;;;6.18;;
11608;SDS011;5860;52.018;8.536;2023-06-24T14:26:00;7.65;;;6.15;;
11608;SDS011;5860;52.018;8.536;2023-06-24T14:28:27;6.32;;;5.82;;
11608;SDS011;5860;52.018;8.536;2023-06-24T14:30:54;7.53;;;5.97;;
11608;SDS011;5860;52.018;8.536;2023-06-24T14:33:21;10.18;;;5.78;;
11608;SDS011;5860;52.018;8.536;2023-06-24T14:35:49;7.68;;;6.43;;
11608;SDS011;5860;52.018;8.536;2023-06-24T14:38:17;7.55;;;5.97;;
11608;SDS011;5860;52.018;8.536;2023-06-24T14:40:45;6.63;;;5.38;;
11608;SDS011;5860;52.018;8.536;2023-06-24T14:43:11;6.82;;;6.05;;
11608;SDS011;5860;52.018;8.536;2023-06-24T14:45:38;8.35;;;5.97;;
11608;SDS011;5860;52.018;8.536;2023-06-24T14:48:05;5.75;;;5.20;;
11608;SDS011;5860;52.018;8.536;2023-06-24T14:50:32;7.65;;;6.18;;
11608;SDS011;5860;52.018;8.536;2023-06-24T14:53:00;10.05;;;6.10;;
11608;SDS011;5860;52.018;8.536;2023-06-24T14:55:27;7.30;;;6.03;;
11608;SDS011;5860;52.018;8.536;2023-06-24T14:57:53;9.50;;;5.75;;
11608;SDS011;5860;52.018;8.536;2023-06-24T15:00:20;6.70;;;5.53;;
11608;SDS011;5860;52.018;8.536;2023-06-24T15:02:47;6.10;;;5.38;;
11608;SDS011;5860;52.018;8.536;2023-06-24T15:05:14;6.68;;;5.80;;
11608;SDS011;5860;52.018;8.536;2023-06-24T15:07:41;8.43;;;6.38;;
11608;SDS011;5860;52.018;8.536;2023-06-24T15:10:08;8.25;;;5.68;;
11608;SDS011;5860;52.018;8.536;2023-06-24T15:12:35;6.07;;;5.22;;
11608;SDS011;5860;52.018;8.536;2023-06-24T15:15:02;8.35;;;5.88;;
11608;SDS011;5860;52.018;8.536;2023-06-24T15:17:29;6.78;;;6.00;;
11608;SDS011;5860;52.018;8.536;2023-06-24T15:19:56;5.97;;;5.38;;
11608;SDS011;5860;52.018;8.536;2023-06-24T15:22:23;6.55;;;5.85;;
11608;SDS011;5860;52.018;8.536;2023-06-24T15:24:50;6.15;;;5.47;;
11608;SDS011;5860;52.018;8.536;2023-06-24T15:27:17;5.75;;;5.20;;
11608;SDS011;5860;52.018;8.536;2023-06-24T15:29:45;9.43;;;6.03;;